메인 페이지
METAR-TAF:

METAR-TAF

공항 :

Theodore Francis Green State Airport

프로비던스, 로드아일랜드, 미국

위도: 41-43-26N, 경도: 071-25-41W, 고도: 16m

현재 날씨관측

예보는 35분 전, 18:51시(UTC)에 발표되었습니다.
북서12kt, 순간 최대 풍속 18kt
온도 9°C
습도 71%
기압 1008 hPa
시정: 16.1km
고도 2000ft 상공 구름 조금
고도 4300ft 상공 구름 많음
고도 9000ft 상공 구름 많음

METAR: KPVD 231851Z 31012G18KT 10SM FEW020 BKN043 BKN090 09/04 A2978 RMK AO2 RAB15E36 SLP084 P0000 T00940039 $

시각: 14:26 (19:26 UTC)

예보

예보는 1 시간 44분 전, 17:42시(UTC)에 발표되었습니다.
예보 대상 시간: 23일 18시부터 24일 18시까지 (UTC)
북북서18kt, 순간 최대 풍속 28kt
시정: 10km
고도 1400ft 상공 구름 보통
고도 9000ft 상공 구름 많음
고도 11000ft 상공 흐림
약한소나기
일시적
23일 18시부터 23일 20시까지 (UTC)
시정: 4.8km
고도 1400ft 상공 구름 많음
고도 3500ft 상공 흐림
약한소나기
23일 2000시부터 (UTC)
북서16kt, 순간 최대 풍속 31kt
시정: 10km
고도 25000ft 상공 구름 많음
24일 0600시부터 (UTC)
북서11kt, 순간 최대 풍속 24kt
시정: 10km
맑음
24일 1200시부터 (UTC)
서북서8kt
시정: 10km
맑음
24일 1500시부터 (UTC)
북서12kt, 순간 최대 풍속 20kt
시정: 10km
맑음

TAF: KPVD 231742Z 2318/2418 33018G28KT P6SM -SHRA SCT014 BKN090 OVC110 TEMPO 2318/2320 3SM -SHRA BKN014 OVC035 FM232000 32016G31KT P6SM BKN250 FM240600 31011G24KT P6SM SKC FM241200 30008KT P6SM SKC FM241500 32012G20KT P6SM SKC

4,000개 이상의 공항 관측 자료 및 예보 (METAR 및 TAF 보고).

지도상에서 검색 가능한 기상관측소가 노란 점과 빨간 점으로 표시되어 있습니다.

기상관측소 명을 보려면 표시 위로 마우스를 이동하세요.

날씨 관측과 예보를 보려면 클릭하세요.

지도 변경 : 확대하려면 엑스 표시가 있는 녹색 버튼, 축소하려면 빼기 표시가 있는 녹색 버튼, 다음 페이지의 지도를 보려면 녹색 화살표를 클릭하세요.


METAR-TAF: